createdAt,value
2022-08-28T00:00:59.410Z,21.40
2022-08-28T00:03:26.171Z,21.50
2022-08-28T00:05:53.624Z,21.40
2022-08-28T00:08:20.611Z,21.40
2022-08-28T00:10:47.594Z,21.40
2022-08-28T00:13:19.288Z,21.40
2022-08-28T00:15:49.025Z,21.40
2022-08-28T00:18:16.094Z,21.40
2022-08-28T00:20:44.517Z,21.40
2022-08-28T00:23:11.246Z,21.40
2022-08-28T00:25:37.935Z,21.40
2022-08-28T00:28:09.250Z,21.40
2022-08-28T00:30:48.866Z,21.40
2022-08-28T00:33:25.291Z,21.40
2022-08-28T00:35:52.276Z,21.40
2022-08-28T00:38:21.136Z,21.40
2022-08-28T00:40:51.105Z,21.40
2022-08-28T00:43:34.904Z,21.30
2022-08-28T00:46:03.710Z,21.20
2022-08-28T00:48:31.120Z,21.30
2022-08-28T00:51:17.330Z,21.30
2022-08-28T00:53:44.752Z,21.30
2022-08-28T00:56:14.388Z,21.30
2022-08-28T00:58:44.763Z,21.30
2022-08-28T01:01:12.975Z,21.30
2022-08-28T01:03:40.417Z,21.30
2022-08-28T01:06:09.102Z,21.30
2022-08-28T01:08:38.367Z,21.20
2022-08-28T01:11:07.337Z,21.30
2022-08-28T01:13:36.458Z,21.20
2022-08-28T01:16:05.333Z,21.20
2022-08-28T01:18:33.948Z,21.20
2022-08-28T01:21:29.625Z,21.20
2022-08-28T01:24:14.826Z,21.20
2022-08-28T01:26:42.102Z,21.20
2022-08-28T01:29:09.967Z,21.20
2022-08-28T01:31:37.767Z,21.20
2022-08-28T01:34:05.830Z,21.10
2022-08-28T01:36:33.902Z,21.20
2022-08-28T01:39:09.712Z,21.20
2022-08-28T01:41:42.326Z,21.20
2022-08-28T01:44:09.482Z,21.20
2022-08-28T01:46:36.554Z,21.10
2022-08-28T01:49:04.406Z,21.10
2022-08-28T01:51:34.970Z,21.10
2022-08-28T01:54:04.458Z,21.10
2022-08-28T01:56:31.926Z,21.00
2022-08-28T01:59:00.350Z,21.10
2022-08-28T02:01:27.109Z,21.00
2022-08-28T02:03:54.022Z,21.10
2022-08-28T02:06:20.859Z,21.00
2022-08-28T02:08:49.823Z,21.00
2022-08-28T02:11:17.092Z,21.00
2022-08-28T02:13:43.847Z,21.00
2022-08-28T02:16:11.328Z,20.90
2022-08-28T02:18:38.850Z,21.00
2022-08-28T02:21:06.669Z,20.90
2022-08-28T02:23:33.435Z,21.00
2022-08-28T02:26:00.587Z,21.00
2022-08-28T02:28:27.545Z,20.90
2022-08-28T02:30:54.343Z,20.90
2022-08-28T02:33:21.605Z,20.90
2022-08-28T02:35:49.383Z,20.90
2022-08-28T02:38:17.282Z,20.90
2022-08-28T02:40:45.611Z,20.90
2022-08-28T02:43:12.381Z,20.90
2022-08-28T02:45:39.260Z,20.90
2022-08-28T02:48:15.689Z,20.90
2022-08-28T02:50:46.172Z,20.90
2022-08-28T02:53:13.634Z,20.90
2022-08-28T02:55:40.388Z,20.90
2022-08-28T02:58:09.540Z,20.80
2022-08-28T03:00:36.463Z,20.80
2022-08-28T03:03:03.640Z,20.80
2022-08-28T03:05:30.473Z,20.80
2022-08-28T03:07:57.271Z,20.80
2022-08-28T03:10:24.635Z,20.80
2022-08-28T03:12:51.773Z,20.80
2022-08-28T03:15:19.023Z,20.80
2022-08-28T03:17:45.757Z,20.80
2022-08-28T03:20:15.984Z,20.80
2022-08-28T03:23:01.469Z,20.70
2022-08-28T03:25:29.067Z,20.80
2022-08-28T03:27:55.951Z,20.70
2022-08-28T03:30:23.593Z,20.70
2022-08-28T03:32:50.644Z,20.70
2022-08-28T03:35:18.585Z,20.70
2022-08-28T03:37:45.282Z,20.70
2022-08-28T03:40:13.746Z,20.70
2022-08-28T03:42:40.950Z,20.70
2022-08-28T03:45:09.675Z,20.70
2022-08-28T03:47:41.770Z,20.60
2022-08-28T03:50:13.628Z,20.60
2022-08-28T03:52:41.130Z,20.70
2022-08-28T03:55:10.207Z,20.60
2022-08-28T03:57:37.268Z,20.70
2022-08-28T04:00:08.380Z,20.60
2022-08-28T04:02:35.120Z,20.60
2022-08-28T04:05:01.895Z,20.60
2022-08-28T04:07:28.660Z,20.60
2022-08-28T04:09:55.317Z,20.70
2022-08-28T04:12:22.044Z,20.70
2022-08-28T04:14:49.611Z,20.50
2022-08-28T04:17:16.513Z,20.50
2022-08-28T04:19:44.915Z,20.50
2022-08-28T04:22:11.648Z,20.50
2022-08-28T04:24:39.500Z,20.50
2022-08-28T04:27:06.240Z,20.60
2022-08-28T04:29:33.016Z,20.50
2022-08-28T04:31:59.817Z,20.60
2022-08-28T04:34:26.547Z,20.50
2022-08-28T04:36:53.650Z,20.50
2022-08-28T04:39:20.350Z,20.40
2022-08-28T04:41:47.267Z,20.40
2022-08-28T04:44:13.992Z,20.40
2022-08-28T04:46:40.911Z,20.40
2022-08-28T04:49:08.062Z,20.40
2022-08-28T04:51:36.925Z,20.50
2022-08-28T04:54:07.793Z,20.40
2022-08-28T04:56:34.786Z,20.40
2022-08-28T04:59:03.357Z,20.40
2022-08-28T05:01:30.574Z,20.40
2022-08-28T05:04:00.449Z,20.30
2022-08-28T05:06:29.372Z,20.40
2022-08-28T05:09:00.785Z,20.40
2022-08-28T05:11:34.326Z,20.40
2022-08-28T05:14:04.568Z,20.40
2022-08-28T05:16:31.890Z,20.40
2022-08-28T05:19:03.085Z,20.40
2022-08-28T05:21:30.713Z,20.40
2022-08-28T05:23:58.106Z,20.40
2022-08-28T05:26:27.007Z,20.40
2022-08-28T05:28:57.963Z,20.30
2022-08-28T05:31:26.241Z,20.30
2022-08-28T05:33:53.740Z,20.30
2022-08-28T05:36:25.949Z,20.00
2022-08-28T05:39:01.499Z,19.70
2022-08-28T05:41:31.037Z,19.50
2022-08-28T05:44:04.319Z,19.50
2022-08-28T05:46:31.495Z,19.40
2022-08-28T05:49:00.208Z,19.40
2022-08-28T05:51:30.757Z,19.50
2022-08-28T05:53:58.884Z,19.60
2022-08-28T05:56:29.866Z,19.70
2022-08-28T05:59:01.277Z,19.80
2022-08-28T06:01:30.382Z,19.80
2022-08-28T06:04:00.315Z,19.70
2022-08-28T06:06:29.897Z,19.70
2022-08-28T06:09:01.585Z,20.30
2022-08-28T06:11:30.468Z,20.70
2022-08-28T06:14:02.805Z,20.80
2022-08-28T06:16:32.176Z,20.90
2022-08-28T06:19:00.474Z,21.00
2022-08-28T06:21:27.778Z,21.00
2022-08-28T06:23:54.599Z,21.20
2022-08-28T06:26:21.463Z,21.20
2022-08-28T06:28:49.296Z,21.30
2022-08-28T06:31:24.507Z,21.30
2022-08-28T06:33:57.257Z,21.40
2022-08-28T06:36:25.021Z,21.50
2022-08-28T06:38:51.842Z,21.50
2022-08-28T06:41:19.779Z,21.50
2022-08-28T06:43:46.532Z,21.50
2022-08-28T06:46:13.676Z,21.50
2022-08-28T06:48:40.509Z,21.50
2022-08-28T06:51:10.036Z,21.60
2022-08-28T06:53:38.208Z,21.60
2022-08-28T06:56:11.757Z,21.60
2022-08-28T06:58:50.328Z,21.60
2022-08-28T07:01:31.027Z,21.60
2022-08-28T07:04:02.994Z,21.70
2022-08-28T07:06:36.010Z,21.60
2022-08-28T07:09:05.364Z,21.40
2022-08-28T07:11:34.125Z,20.30
2022-08-28T07:14:01.688Z,20.70
2022-08-28T07:16:32.442Z,20.90
2022-08-28T07:18:59.823Z,21.10
2022-08-28T07:21:26.981Z,20.80
2022-08-28T07:23:55.341Z,21.00
2022-08-28T07:26:24.453Z,20.90
2022-08-28T07:29:10.519Z,21.10
2022-08-28T07:31:44.053Z,20.90
2022-08-28T07:34:13.580Z,21.40
2022-08-28T07:36:41.574Z,21.60
2022-08-28T07:39:09.695Z,21.40
2022-08-28T07:41:39.379Z,21.30
2022-08-28T07:44:25.864Z,22.00
2022-08-28T07:46:57.595Z,22.50
2022-08-28T07:49:25.691Z,22.20
2022-08-28T07:51:54.186Z,21.70
2022-08-28T07:54:22.133Z,21.90
2022-08-28T07:56:53.741Z,22.10
2022-08-28T07:59:22.619Z,21.90
2022-08-28T08:01:51.580Z,22.10
2022-08-28T08:04:20.386Z,22.00
2022-08-28T08:06:47.178Z,21.90
2022-08-28T08:09:15.967Z,21.70
2022-08-28T08:11:45.861Z,21.60
2022-08-28T08:14:14.182Z,21.50
2022-08-28T08:16:43.431Z,21.60
2022-08-28T08:19:14.844Z,21.20
2022-08-28T08:21:44.037Z,21.30
2022-08-28T08:24:19.386Z,21.40
2022-08-28T08:26:59.195Z,21.60
2022-08-28T08:29:31.543Z,21.00
2022-08-28T08:32:05.836Z,21.50
2022-08-28T08:34:39.491Z,21.50
2022-08-28T08:37:07.294Z,21.30
2022-08-28T08:39:35.618Z,21.60
2022-08-28T08:42:05.057Z,21.50
2022-08-28T08:44:38.906Z,21.60
2022-08-28T08:47:19.387Z,21.40
2022-08-28T08:49:58.040Z,21.50
2022-08-28T08:55:25.149Z,21.60
2022-08-28T08:58:16.926Z,21.70
2022-08-28T09:00:56.718Z,21.00
2022-08-28T09:03:27.576Z,21.40
2022-08-28T09:06:00.067Z,21.30
2022-08-28T09:08:45.715Z,21.30
2022-08-28T09:11:45.325Z,21.60
2022-08-28T09:14:47.285Z,21.60
2022-08-28T09:17:18.312Z,21.70
2022-08-28T09:19:45.097Z,21.00
2022-08-28T09:22:12.011Z,21.00
2022-08-28T09:24:41.230Z,20.80
2022-08-28T09:27:23.561Z,21.00
2022-08-28T09:30:08.045Z,21.10
2022-08-28T09:32:46.774Z,21.00
2022-08-28T09:35:28.169Z,20.90
2022-08-28T09:37:56.707Z,21.00
2022-08-28T09:40:50.437Z,21.00
2022-08-28T09:43:28.949Z,21.00
2022-08-28T09:46:09.418Z,21.10
2022-08-28T09:48:43.364Z,21.40
2022-08-28T09:51:28.015Z,21.40
2022-08-28T09:53:54.771Z,21.30
2022-08-28T09:56:35.048Z,21.20
2022-08-28T09:59:12.134Z,20.90
2022-08-28T10:01:46.707Z,20.90
2022-08-28T10:04:19.601Z,21.30
2022-08-28T10:07:18.277Z,21.10
2022-08-28T10:10:10.039Z,20.80
2022-08-28T10:13:14.488Z,21.20
2022-08-28T10:15:59.434Z,21.00
2022-08-28T10:18:35.809Z,21.00
2022-08-28T10:21:25.477Z,20.90
2022-08-28T10:24:24.775Z,21.00
2022-08-28T10:27:28.726Z,21.40
2022-08-28T10:30:12.406Z,21.30
2022-08-28T10:33:09.408Z,21.30
2022-08-28T10:36:09.763Z,21.20
2022-08-28T10:39:22.074Z,21.30
2022-08-28T10:41:57.274Z,21.70
2022-08-28T10:44:40.585Z,21.70
2022-08-28T10:47:08.509Z,21.30
2022-08-28T10:49:39.685Z,21.60
2022-08-28T10:52:15.460Z,21.50
2022-08-28T10:54:54.799Z,21.80
2022-08-28T10:57:41.863Z,21.90
2022-08-28T11:00:13.275Z,21.70
2022-08-28T11:02:44.290Z,21.30
2022-08-28T11:05:11.584Z,21.50
2022-08-28T11:07:49.671Z,21.40
2022-08-28T11:10:34.957Z,21.20
2022-08-28T11:13:03.672Z,21.60
2022-08-28T11:15:37.115Z,21.70
2022-08-28T11:18:16.723Z,21.70
2022-08-28T11:21:02.341Z,21.60
2022-08-28T11:23:40.857Z,21.80
2022-08-28T11:26:12.421Z,21.60
2022-08-28T11:28:44.593Z,21.80
2022-08-28T11:31:14.260Z,22.00
2022-08-28T11:33:56.115Z,21.40
2022-08-28T11:36:22.794Z,21.50
2022-08-28T11:38:52.995Z,21.70
2022-08-28T11:41:29.889Z,21.90
2022-08-28T11:44:12.511Z,21.90
2022-08-28T11:46:43.629Z,22.00
2022-08-28T11:49:39.891Z,21.80
2022-08-28T11:52:39.796Z,22.10
2022-08-28T11:55:19.985Z,22.10
2022-08-28T11:57:51.697Z,21.80
2022-08-28T12:00:42.945Z,22.00
2022-08-28T12:03:37.201Z,22.10
2022-08-28T12:06:05.364Z,22.10
2022-08-28T12:08:53.130Z,22.40
2022-08-28T12:11:59.333Z,22.00
2022-08-28T12:14:25.981Z,22.10
2022-08-28T12:16:58.839Z,22.00
2022-08-28T12:19:55.421Z,21.70
2022-08-28T12:22:26.312Z,22.00
2022-08-28T12:24:58.331Z,22.20
2022-08-28T12:27:26.313Z,21.90
2022-08-28T12:29:58.851Z,22.10
2022-08-28T12:32:47.884Z,22.00
2022-08-28T12:35:30.164Z,22.00
2022-08-28T12:37:57.361Z,22.00
2022-08-28T12:40:37.181Z,22.10
2022-08-28T12:43:10.363Z,22.40
2022-08-28T12:45:45.804Z,22.50
2022-08-28T12:48:21.127Z,22.30
2022-08-28T12:50:48.853Z,22.30
2022-08-28T12:53:17.936Z,22.30
2022-08-28T12:55:46.624Z,22.30
2022-08-28T12:58:35.099Z,22.40
2022-08-28T13:01:09.815Z,22.20
2022-08-28T13:03:57.014Z,22.20
2022-08-28T13:06:35.892Z,22.20
2022-08-28T13:09:22.269Z,22.40
2022-08-28T13:11:51.469Z,22.40
2022-08-28T13:14:40.351Z,22.40
2022-08-28T13:17:35.595Z,22.20
2022-08-28T13:20:05.021Z,22.30
2022-08-28T13:22:40.381Z,22.30
2022-08-28T13:25:08.599Z,22.10
2022-08-28T13:27:36.073Z,22.30
2022-08-28T13:30:20.027Z,21.80
2022-08-28T13:33:23.665Z,21.90
2022-08-28T13:35:51.934Z,22.00
2022-08-28T13:38:21.826Z,22.40
2022-08-28T13:40:58.713Z,22.30
2022-08-28T13:43:29.453Z,22.40
2022-08-28T13:45:59.459Z,22.40
2022-08-28T13:48:36.390Z,22.40
2022-08-28T13:51:12.014Z,22.00
2022-08-28T13:53:44.620Z,22.50
2022-08-28T13:56:11.555Z,22.30
2022-08-28T13:58:38.273Z,22.30
2022-08-28T14:01:05.175Z,22.40
2022-08-28T14:03:35.823Z,22.50
2022-08-28T14:06:11.657Z,22.50
2022-08-28T14:08:43.688Z,22.50
2022-08-28T14:11:12.627Z,22.50
2022-08-28T14:13:40.746Z,22.50
2022-08-28T14:16:16.735Z,22.30
2022-08-28T14:18:43.592Z,22.50
2022-08-28T14:21:12.631Z,22.70
2022-08-28T14:23:39.315Z,22.40
2022-08-28T14:26:06.217Z,22.50
2022-08-28T14:28:32.976Z,22.30
2022-08-28T14:31:00.713Z,22.10
2022-08-28T14:33:27.443Z,22.10
2022-08-28T14:35:54.638Z,22.00
2022-08-28T14:38:21.409Z,21.80
2022-08-28T14:40:48.121Z,22.10
2022-08-28T14:43:15.290Z,22.30
2022-08-28T14:45:47.371Z,22.10
2022-08-28T14:48:15.692Z,21.80
2022-08-28T14:50:44.221Z,22.30
2022-08-28T14:53:11.552Z,22.40
2022-08-28T14:55:47.539Z,22.40
2022-08-28T14:58:15.392Z,22.00
2022-08-28T15:00:45.639Z,22.00
2022-08-28T15:03:13.794Z,22.10
2022-08-28T15:05:41.160Z,21.90
2022-08-28T15:08:13.423Z,22.10
2022-08-28T15:10:42.251Z,22.40
2022-08-28T15:13:10.448Z,22.30
2022-08-28T15:15:42.301Z,22.10
2022-08-28T15:18:10.440Z,22.20
2022-08-28T15:20:43.558Z,22.30
2022-08-28T15:23:11.261Z,22.00
2022-08-28T15:25:38.181Z,22.20
2022-08-28T15:28:05.206Z,22.30
2022-08-28T15:30:32.359Z,22.30
2022-08-28T15:32:59.132Z,22.20
2022-08-28T15:35:25.863Z,22.40
2022-08-28T15:37:53.516Z,22.30
2022-08-28T15:40:39.355Z,21.70
2022-08-28T15:43:06.209Z,21.80
2022-08-28T15:45:37.578Z,21.90
2022-08-28T15:48:04.653Z,22.00
2022-08-28T15:50:31.656Z,22.00
2022-08-28T15:52:58.936Z,21.90
2022-08-28T15:55:26.349Z,22.10
2022-08-28T15:57:53.413Z,21.80
2022-08-28T16:00:20.917Z,21.70
2022-08-28T16:02:47.859Z,21.90
2022-08-28T16:05:15.897Z,21.80
2022-08-28T16:07:42.646Z,21.70
2022-08-28T16:10:13.365Z,21.70
2022-08-28T16:12:40.967Z,21.90
2022-08-28T16:15:09.022Z,21.80
2022-08-28T16:17:35.928Z,21.90
2022-08-28T16:20:11.093Z,21.70
2022-08-28T16:22:41.986Z,21.80
2022-08-28T16:25:09.721Z,21.50
2022-08-28T16:27:36.794Z,21.70
2022-08-28T16:30:05.137Z,21.60
2022-08-28T16:32:33.331Z,21.50
2022-08-28T16:35:03.867Z,21.60
2022-08-28T16:37:39.739Z,21.50
2022-08-28T16:40:08.913Z,21.60
2022-08-28T16:42:36.026Z,21.80
2022-08-28T16:45:04.419Z,21.30
2022-08-28T16:47:33.230Z,21.40
2022-08-28T16:50:02.471Z,21.60
2022-08-28T16:52:29.389Z,21.40
2022-08-28T16:54:56.124Z,21.00
2022-08-28T16:57:23.739Z,21.40
2022-08-28T16:59:53.077Z,21.10
2022-08-28T17:02:24.869Z,21.30
2022-08-28T17:04:54.475Z,21.10
2022-08-28T17:07:21.889Z,21.10
2022-08-28T17:09:48.701Z,20.90
2022-08-28T17:12:16.677Z,21.30
2022-08-28T17:14:44.141Z,20.90
2022-08-28T17:17:11.525Z,20.50
2022-08-28T17:19:39.693Z,21.00
2022-08-28T17:22:27.165Z,21.00
2022-08-28T17:24:54.762Z,21.20
2022-08-28T17:27:22.573Z,20.90
2022-08-28T17:29:50.402Z,21.10
2022-08-28T17:32:17.608Z,20.70
2022-08-28T17:34:44.748Z,20.70
2022-08-28T17:37:13.135Z,20.60
2022-08-28T17:39:39.839Z,20.90
2022-08-28T17:42:06.760Z,20.90
2022-08-28T17:44:35.250Z,21.10
2022-08-28T17:47:03.354Z,20.60
2022-08-28T17:49:31.440Z,21.00
2022-08-28T17:51:58.153Z,21.00
2022-08-28T17:54:25.667Z,20.80
2022-08-28T17:56:54.529Z,21.00
2022-08-28T17:59:22.945Z,21.20
2022-08-28T18:01:50.023Z,21.50
2022-08-28T18:04:23.840Z,21.00
2022-08-28T18:06:54.081Z,21.30
2022-08-28T18:09:21.632Z,21.00
2022-08-28T18:11:48.516Z,21.50
2022-08-28T18:14:15.307Z,21.60
2022-08-28T18:16:42.635Z,21.60
2022-08-28T18:19:10.737Z,21.60
2022-08-28T18:21:39.091Z,21.40
2022-08-28T18:24:06.531Z,21.70
2022-08-28T18:26:36.935Z,21.80
2022-08-28T18:29:03.983Z,21.70
2022-08-28T18:31:30.933Z,21.70
2022-08-28T18:33:57.968Z,21.80
2022-08-28T18:36:25.116Z,21.80
2022-08-28T18:38:52.064Z,21.70
2022-08-28T18:41:22.187Z,21.50
2022-08-28T18:43:57.766Z,21.20
2022-08-28T18:46:31.587Z,21.10
2022-08-28T18:48:58.894Z,20.80
2022-08-28T18:51:26.268Z,20.80
2022-08-28T18:53:53.055Z,20.90
2022-08-28T18:56:19.818Z,20.90
2022-08-28T18:58:47.851Z,20.80
2022-08-28T19:01:15.946Z,20.80
2022-08-28T19:03:43.124Z,20.80
2022-08-28T19:06:13.276Z,20.80
2022-08-28T19:08:50.528Z,20.50
2022-08-28T19:11:24.123Z,20.40
2022-08-28T19:13:57.195Z,21.10
2022-08-28T19:16:24.005Z,21.00
2022-08-28T19:18:53.042Z,20.80
2022-08-28T19:21:20.437Z,20.60
2022-08-28T19:23:55.357Z,20.40
2022-08-28T19:26:26.195Z,20.60
2022-08-28T19:28:53.483Z,20.70
2022-08-28T19:31:20.878Z,20.40
2022-08-28T19:33:47.729Z,20.40
2022-08-28T19:36:15.405Z,20.50
2022-08-28T19:38:42.434Z,20.70
2022-08-28T19:41:10.938Z,20.60
2022-08-28T19:43:42.895Z,20.80
2022-08-28T19:46:14.035Z,20.70
2022-08-28T19:48:47.104Z,20.70
2022-08-28T19:51:22.362Z,20.70
2022-08-28T19:53:56.773Z,20.50
2022-08-28T19:56:26.992Z,20.70
2022-08-28T19:58:57.475Z,20.70
2022-08-28T20:01:24.510Z,20.60
2022-08-28T20:03:51.315Z,20.60
2022-08-28T20:06:18.411Z,20.40
2022-08-28T20:08:45.130Z,20.50
2022-08-28T20:11:17.342Z,20.30
2022-08-28T20:13:44.088Z,20.50
2022-08-28T20:16:12.995Z,20.40
2022-08-28T20:18:40.075Z,20.80
2022-08-28T20:21:11.062Z,20.50
2022-08-28T20:23:38.215Z,20.60
2022-08-28T20:26:05.447Z,20.30
2022-08-28T20:28:32.662Z,19.80
2022-08-28T20:31:01.330Z,20.00
2022-08-28T20:33:28.133Z,19.70
2022-08-28T20:36:03.328Z,19.30
2022-08-28T20:38:30.098Z,19.60
2022-08-28T20:41:26.324Z,19.50
2022-08-28T20:43:53.077Z,19.70
2022-08-28T20:46:20.041Z,19.80
2022-08-28T20:48:47.262Z,19.70
2022-08-28T20:51:15.017Z,19.80
2022-08-28T20:53:41.808Z,19.70
2022-08-28T20:56:10.227Z,19.50
2022-08-28T20:58:38.641Z,19.30
2022-08-28T21:01:05.713Z,19.40
2022-08-28T21:03:32.645Z,19.40
2022-08-28T21:05:59.373Z,19.40
2022-08-28T21:08:26.106Z,19.40
2022-08-28T21:10:52.853Z,18.80
2022-08-28T21:13:21.947Z,19.00
2022-08-28T21:15:48.797Z,19.10
2022-08-28T21:18:15.889Z,18.90
2022-08-28T21:20:42.957Z,18.80
2022-08-28T21:23:10.460Z,19.00
2022-08-28T21:25:39.446Z,18.80
2022-08-28T21:28:06.685Z,18.90
2022-08-28T21:30:34.228Z,19.00
2022-08-28T21:33:02.035Z,19.00
2022-08-28T21:35:29.068Z,19.10
2022-08-28T21:37:55.819Z,19.10
2022-08-28T21:40:22.701Z,19.10
2022-08-28T21:42:49.472Z,19.10
2022-08-28T21:45:16.180Z,19.00
2022-08-28T21:47:44.280Z,18.80
2022-08-28T21:50:12.205Z,18.70
2022-08-28T21:52:39.039Z,18.80
2022-08-28T21:55:12.498Z,18.70
2022-08-28T21:57:39.608Z,18.80
2022-08-28T22:00:11.776Z,18.60
2022-08-28T22:02:38.846Z,18.80
2022-08-28T22:05:10.096Z,18.70
2022-08-28T22:07:37.385Z,18.80
2022-08-28T22:10:05.431Z,18.70
2022-08-28T22:12:32.847Z,18.50
2022-08-28T22:15:00.054Z,18.60
2022-08-28T22:17:27.176Z,18.70
2022-08-28T22:19:54.053Z,18.60
2022-08-28T22:22:40.637Z,18.60
2022-08-28T22:25:07.963Z,18.70
2022-08-28T22:27:34.755Z,18.90
2022-08-28T22:30:01.546Z,18.90
2022-08-28T22:32:29.489Z,18.90
2022-08-28T22:34:56.264Z,19.00
2022-08-28T22:37:23.401Z,18.80
2022-08-28T22:39:50.252Z,18.50
2022-08-28T22:42:17.046Z,18.40
2022-08-28T22:44:43.797Z,18.40
2022-08-28T22:47:10.597Z,18.60
2022-08-28T22:49:39.819Z,18.60
2022-08-28T22:52:09.407Z,18.50
2022-08-28T22:54:36.159Z,18.40
2022-08-28T22:57:05.730Z,18.30
2022-08-28T22:59:33.095Z,18.30
2022-08-28T23:02:00.073Z,18.20
2022-08-28T23:04:27.509Z,17.90
2022-08-28T23:06:54.838Z,17.90
2022-08-28T23:09:21.569Z,18.00
2022-08-28T23:11:49.103Z,18.30
2022-08-28T23:14:16.020Z,18.40
2022-08-28T23:16:42.892Z,18.20
2022-08-28T23:19:13.286Z,17.90
2022-08-28T23:21:43.921Z,17.60
2022-08-28T23:24:16.074Z,17.80
2022-08-28T23:26:44.363Z,17.80
2022-08-28T23:29:12.145Z,17.80
2022-08-28T23:31:39.146Z,17.60
2022-08-28T23:34:06.429Z,17.80
2022-08-28T23:36:35.861Z,17.70
2022-08-28T23:39:04.169Z,17.80
2022-08-28T23:41:32.702Z,17.70
2022-08-28T23:43:59.877Z,17.80
2022-08-28T23:46:26.774Z,17.70
2022-08-28T23:48:53.512Z,17.60
2022-08-28T23:51:21.655Z,17.90
2022-08-28T23:53:49.204Z,17.70
2022-08-28T23:56:16.793Z,17.50
2022-08-28T23:58:44.448Z,17.30
